createdAt,value
2017-05-05T00:00:55.492Z,0
2017-05-05T00:01:55.493Z,0
2017-05-05T00:02:55.447Z,0
2017-05-05T00:03:55.748Z,0
2017-05-05T00:04:55.415Z,0
2017-05-05T00:05:55.373Z,0
2017-05-05T00:06:55.683Z,0
2017-05-05T00:07:55.058Z,0
2017-05-05T00:08:55.652Z,0
2017-05-05T00:09:55.320Z,0
2017-05-05T00:10:55.361Z,0
2017-05-05T00:11:55.256Z,0
2017-05-05T00:12:55.327Z,0
2017-05-05T00:13:55.254Z,0
2017-05-05T00:14:55.512Z,0
2017-05-05T00:15:54.890Z,0
2017-05-05T00:16:55.467Z,0
2017-05-05T00:17:55.493Z,0
2017-05-05T00:18:55.426Z,0
2017-05-05T00:19:54.813Z,0
2017-05-05T00:20:55.089Z,0
2017-05-05T00:21:55.429Z,0
2017-05-05T00:22:55.063Z,0
2017-05-05T00:23:55.038Z,0
2017-05-05T00:24:55.324Z,0
2017-05-05T00:25:54.684Z,0
2017-05-05T00:26:55.282Z,0
2017-05-05T00:27:55.284Z,0
2017-05-05T00:28:54.659Z,0
2017-05-05T00:29:55.275Z,0
2017-05-05T00:30:54.585Z,0
2017-05-05T00:31:54.863Z,0
2017-05-05T00:32:55.144Z,0
2017-05-05T00:33:54.510Z,0
2017-05-05T00:34:55.130Z,0
2017-05-05T00:35:54.781Z,0
2017-05-05T00:36:55.073Z,0
2017-05-05T00:37:55.041Z,0
2017-05-05T00:38:54.722Z,0
2017-05-05T00:39:54.403Z,0
2017-05-05T00:40:54.996Z,0
2017-05-05T00:41:54.971Z,0
2017-05-05T00:42:54.944Z,0
2017-05-05T00:43:54.622Z,0
2017-05-05T00:44:54.338Z,0
2017-05-05T00:45:54.882Z,0
2017-05-05T00:46:54.927Z,0
2017-05-05T00:47:54.534Z,0
2017-05-05T00:48:54.524Z,0
2017-05-05T00:49:54.225Z,0
2017-05-05T00:50:54.524Z,0
2017-05-05T00:51:54.461Z,0
2017-05-05T00:52:54.452Z,0
2017-05-05T00:53:54.430Z,0
2017-05-05T00:54:54.161Z,0
2017-05-05T00:55:54.363Z,0
2017-05-05T00:56:54.673Z,0
2017-05-05T00:57:54.771Z,0
2017-05-05T00:58:54.312Z,0
2017-05-05T00:59:54.302Z,0
2017-05-05T01:00:54.606Z,0
2017-05-05T01:01:53.774Z,0
2017-05-05T01:02:54.607Z,0
2017-05-05T01:03:54.525Z,0
2017-05-05T01:04:54.213Z,0
2017-05-05T01:05:54.496Z,0
2017-05-05T01:06:54.534Z,0
2017-05-05T01:07:54.186Z,0
2017-05-05T01:08:53.502Z,0
2017-05-05T01:09:54.411Z,0
2017-05-05T01:10:54.082Z,0
2017-05-05T01:11:53.769Z,0
2017-05-05T01:12:54.121Z,0
2017-05-05T01:13:54.044Z,0
2017-05-05T01:14:54.050Z,0
2017-05-05T01:15:54.289Z,0
2017-05-05T01:16:53.644Z,0
2017-05-05T01:17:53.691Z,0
2017-05-05T01:18:53.932Z,0
2017-05-05T01:19:54.254Z,0
2017-05-05T01:20:54.221Z,0
2017-05-05T01:21:54.194Z,0
2017-05-05T01:22:54.164Z,0
2017-05-05T01:23:54.149Z,0
2017-05-05T01:24:53.464Z,0
2017-05-05T01:25:53.447Z,0
2017-05-05T01:26:53.437Z,0
2017-05-05T01:27:54.038Z,0
2017-05-05T01:28:53.767Z,0
2017-05-05T01:29:53.662Z,0
2017-05-05T01:30:53.342Z,0
2017-05-05T01:31:53.321Z,0
2017-05-05T01:32:53.642Z,0
2017-05-05T01:33:53.599Z,0
2017-05-05T01:34:53.674Z,0
2017-05-05T01:35:53.237Z,0
2017-05-05T01:36:53.532Z,0
2017-05-05T01:37:53.531Z,0
2017-05-05T01:38:53.193Z,0
2017-05-05T01:39:53.481Z,0
2017-05-05T01:40:53.133Z,0
2017-05-05T01:41:53.133Z,0
2017-05-05T01:42:53.445Z,0
2017-05-05T01:43:53.693Z,0
2017-05-05T01:44:53.383Z,0
2017-05-05T01:45:53.030Z,0
2017-05-05T01:46:52.711Z,0
2017-05-05T01:47:53.611Z,0
2017-05-05T01:48:52.988Z,0
2017-05-05T01:49:53.570Z,0
2017-05-05T01:50:53.265Z,0
2017-05-05T01:51:53.581Z,0
2017-05-05T01:52:53.223Z,0
2017-05-05T01:53:53.579Z,0
2017-05-05T01:54:52.556Z,0
2017-05-05T01:55:53.155Z,0
2017-05-05T01:56:53.124Z,0
2017-05-05T01:57:52.800Z,0
2017-05-05T01:58:53.384Z,0
2017-05-05T01:59:53.070Z,0
2017-05-05T02:00:53.084Z,0
2017-05-05T02:01:52.462Z,0
2017-05-05T02:02:52.754Z,0
2017-05-05T02:03:52.687Z,0
2017-05-05T02:04:53.301Z,0
2017-05-05T02:05:53.263Z,0
2017-05-05T02:06:52.923Z,0
2017-05-05T02:07:52.905Z,0
2017-05-05T02:08:53.205Z,0
2017-05-05T02:09:52.876Z,0
2017-05-05T02:10:53.201Z,0
2017-05-05T02:11:53.133Z,0
2017-05-05T02:12:53.128Z,0
2017-05-05T02:13:53.093Z,0
2017-05-05T02:14:53.076Z,0
2017-05-05T02:15:53.103Z,0
2017-05-05T02:16:52.713Z,0
2017-05-05T02:17:53.010Z,0
2017-05-05T02:18:52.703Z,0
2017-05-05T02:19:52.964Z,0
2017-05-05T02:20:53.046Z,0
2017-05-05T02:21:52.930Z,0
2017-05-05T02:22:53.005Z,0
2017-05-05T02:23:53.004Z,0
2017-05-05T02:24:52.915Z,0
2017-05-05T02:25:52.602Z,0
2017-05-05T02:26:52.512Z,0
2017-05-05T02:27:52.233Z,0
2017-05-05T02:28:52.784Z,0
2017-05-05T02:29:52.553Z,0
2017-05-05T02:30:52.422Z,0
2017-05-05T02:31:52.407Z,0
2017-05-05T02:32:52.484Z,0
2017-05-05T02:33:52.373Z,0
2017-05-05T02:34:52.365Z,0
2017-05-05T02:35:52.353Z,0
2017-05-05T02:36:52.625Z,0
2017-05-05T02:37:52.322Z,0
2017-05-05T02:38:52.365Z,0
2017-05-05T02:39:52.685Z,0
2017-05-05T02:40:51.926Z,0
2017-05-05T02:41:52.313Z,0
2017-05-05T02:42:51.913Z,0
2017-05-05T02:43:51.883Z,0
2017-05-05T02:44:51.830Z,0
2017-05-05T02:45:51.901Z,0
2017-05-05T02:46:52.105Z,0
2017-05-05T02:47:52.221Z,0
2017-05-05T02:48:52.453Z,0
2017-05-05T02:49:51.423Z,0
2017-05-05T02:50:52.011Z,0
2017-05-05T02:51:51.722Z,0
2017-05-05T02:52:52.322Z,0
2017-05-05T02:53:52.349Z,0
2017-05-05T02:54:51.624Z,0
2017-05-05T02:55:52.321Z,0
2017-05-05T02:56:51.603Z,0
2017-05-05T02:57:51.887Z,0
2017-05-05T02:58:51.943Z,0
2017-05-05T02:59:51.966Z,0
2017-05-05T03:00:51.834Z,0
2017-05-05T03:01:52.217Z,0
2017-05-05T03:02:51.788Z,0
2017-05-05T03:03:52.085Z,0
2017-05-05T03:04:51.825Z,0
2017-05-05T03:05:52.012Z,0
2017-05-05T03:06:51.743Z,0
2017-05-05T03:07:51.744Z,0
2017-05-05T03:08:51.962Z,0
2017-05-05T03:09:51.970Z,0
2017-05-05T03:10:51.922Z,0
2017-05-05T03:11:51.583Z,0
2017-05-05T03:12:51.633Z,0
2017-05-05T03:13:51.264Z,0
2017-05-05T03:14:51.223Z,0
2017-05-05T03:15:51.802Z,0
2017-05-05T03:16:51.784Z,0
2017-05-05T03:17:51.463Z,0
2017-05-05T03:18:51.443Z,0
2017-05-05T03:19:51.422Z,0
2017-05-05T03:20:51.401Z,0
2017-05-05T03:21:51.068Z,0
2017-05-05T03:22:51.041Z,0
2017-05-05T03:23:51.655Z,0
2017-05-05T03:24:51.622Z,0
2017-05-05T03:25:50.981Z,0
2017-05-05T03:26:50.990Z,0
2017-05-05T03:27:50.943Z,0
2017-05-05T03:28:50.931Z,0
2017-05-05T03:29:50.909Z,0
2017-05-05T03:30:51.503Z,0
2017-05-05T03:31:50.876Z,0
2017-05-05T03:32:51.165Z,4
2017-05-05T03:33:50.831Z,4
2017-05-05T03:34:51.431Z,0
2017-05-05T03:35:51.387Z,4
2017-05-05T03:36:50.824Z,4
2017-05-05T03:37:50.752Z,4
2017-05-05T03:38:51.033Z,4
2017-05-05T03:39:51.324Z,4
2017-05-05T03:40:50.993Z,4
2017-05-05T03:41:50.664Z,8
2017-05-05T03:42:50.951Z,8
2017-05-05T03:43:51.254Z,4
2017-05-05T03:44:51.223Z,4
2017-05-05T03:45:51.196Z,8
2017-05-05T03:46:50.555Z,8
2017-05-05T03:47:50.844Z,8
2017-05-05T03:48:51.132Z,12
2017-05-05T03:49:50.813Z,8
2017-05-05T03:50:51.084Z,8
2017-05-05T03:51:51.069Z,12
2017-05-05T03:52:51.053Z,16
2017-05-05T03:53:50.744Z,16
2017-05-05T03:54:50.692Z,16
2017-05-05T03:55:50.989Z,20
2017-05-05T03:56:50.361Z,24
2017-05-05T03:57:50.953Z,28
2017-05-05T03:58:50.617Z,28
2017-05-05T03:59:50.902Z,32
2017-05-05T04:00:50.893Z,32
2017-05-05T04:01:50.626Z,36
2017-05-05T04:02:50.531Z,44
2017-05-05T04:03:50.224Z,48
2017-05-05T04:04:50.802Z,48
2017-05-05T04:05:50.469Z,52
2017-05-05T04:06:50.763Z,52
2017-05-05T04:07:50.142Z,52
2017-05-05T04:08:50.492Z,52
2017-05-05T04:09:50.087Z,48
2017-05-05T04:10:50.681Z,48
2017-05-05T04:11:50.672Z,52
2017-05-05T04:12:50.340Z,56
2017-05-05T04:13:50.644Z,60
2017-05-05T04:14:50.604Z,60
2017-05-05T04:15:49.973Z,64
2017-05-05T04:16:50.549Z,68
2017-05-05T04:17:50.552Z,76
2017-05-05T04:18:50.543Z,76
2017-05-05T04:19:50.533Z,84
2017-05-05T04:20:50.281Z,92
2017-05-05T04:21:50.475Z,84
2017-05-05T04:22:50.221Z,88
2017-05-05T04:23:50.431Z,92
2017-05-05T04:24:50.394Z,96
2017-05-05T04:25:50.154Z,104
2017-05-05T04:26:50.053Z,108
2017-05-05T04:27:50.055Z,108
2017-05-05T04:28:50.040Z,104
2017-05-05T04:29:50.281Z,104
2017-05-05T04:30:49.993Z,120
2017-05-05T04:31:50.281Z,128
2017-05-05T04:32:50.231Z,132
2017-05-05T04:33:50.223Z,136
2017-05-05T04:34:50.200Z,136
2017-05-05T04:35:50.162Z,132
2017-05-05T04:36:50.136Z,140
2017-05-05T04:37:50.147Z,144
2017-05-05T04:38:49.806Z,160
2017-05-05T04:39:49.786Z,164
2017-05-05T04:40:49.837Z,176
2017-05-05T04:41:49.513Z,164
2017-05-05T04:42:50.034Z,164
2017-05-05T04:43:49.727Z,176
2017-05-05T04:44:49.685Z,180
2017-05-05T04:45:49.976Z,180
2017-05-05T04:46:49.947Z,180
2017-05-05T04:47:49.944Z,184
2017-05-05T04:48:49.634Z,196
2017-05-05T04:49:49.593Z,192
2017-05-05T04:50:49.838Z,192
2017-05-05T04:51:49.558Z,192
2017-05-05T04:52:49.537Z,196
2017-05-05T04:53:49.513Z,208
2017-05-05T04:54:49.786Z,188
2017-05-05T04:55:49.479Z,180
2017-05-05T04:56:49.427Z,224
2017-05-05T04:57:49.713Z,212
2017-05-05T04:58:49.407Z,220
2017-05-05T04:59:49.063Z,240
2017-05-05T05:00:49.359Z,268
2017-05-05T05:01:49.629Z,288
2017-05-05T05:02:49.334Z,288
2017-05-05T05:03:49.266Z,320
2017-05-05T05:04:49.571Z,336
2017-05-05T05:05:49.260Z,320
2017-05-05T05:06:49.543Z,336
2017-05-05T05:07:49.222Z,324
2017-05-05T05:08:48.582Z,320
2017-05-05T05:09:49.172Z,324
2017-05-05T05:10:49.456Z,336
2017-05-05T05:11:49.432Z,312
2017-05-05T05:12:49.406Z,328
2017-05-05T05:13:49.086Z,344
2017-05-05T05:14:48.760Z,340
2017-05-05T05:15:48.722Z,324
2017-05-05T05:16:49.345Z,356
2017-05-05T05:17:48.691Z,348
2017-05-05T05:18:48.718Z,344
2017-05-05T05:19:49.284Z,308
2017-05-05T05:20:49.382Z,332
2017-05-05T05:21:49.249Z,312
2017-05-05T05:22:49.284Z,296
2017-05-05T05:23:48.887Z,324
2017-05-05T05:24:49.166Z,328
2017-05-05T05:25:48.882Z,332
2017-05-05T05:26:49.132Z,324
2017-05-05T05:27:48.504Z,344
2017-05-05T05:28:48.772Z,344
2017-05-05T05:29:48.451Z,336
2017-05-05T05:30:48.171Z,344
2017-05-05T05:31:48.404Z,332
2017-05-05T05:32:48.375Z,360
2017-05-05T05:33:48.662Z,364
2017-05-05T05:34:48.654Z,380
2017-05-05T05:35:48.624Z,400
2017-05-05T05:36:48.912Z,372
2017-05-05T05:37:48.579Z,360
2017-05-05T05:38:48.571Z,380
2017-05-05T05:39:48.545Z,400
2017-05-05T05:40:48.543Z,412
2017-05-05T05:41:48.502Z,408
2017-05-05T05:42:48.521Z,392
2017-05-05T05:43:48.485Z,380
2017-05-05T05:44:48.468Z,420
2017-05-05T05:45:48.791Z,440
2017-05-05T05:46:48.399Z,436
2017-05-05T05:47:48.393Z,496
2017-05-05T05:48:48.065Z,500
2017-05-05T05:49:48.332Z,520
2017-05-05T05:50:48.641Z,520
2017-05-05T05:51:48.283Z,544
2017-05-05T05:52:48.609Z,540
2017-05-05T05:53:48.554Z,548
2017-05-05T05:54:48.236Z,476
2017-05-05T05:55:48.531Z,496
2017-05-05T05:56:48.212Z,496
2017-05-05T05:57:48.488Z,520
2017-05-05T05:58:48.172Z,516
2017-05-05T05:59:48.791Z,488
2017-05-05T06:00:48.134Z,476
2017-05-05T06:01:48.104Z,484
2017-05-05T06:02:48.085Z,520
2017-05-05T06:03:48.381Z,528
2017-05-05T06:04:48.426Z,508
2017-05-05T06:05:48.331Z,568
2017-05-05T06:06:48.002Z,596
2017-05-05T06:07:48.299Z,656
2017-05-05T06:08:48.267Z,664
2017-05-05T06:09:48.232Z,680
2017-05-05T06:10:48.238Z,660
2017-05-05T06:11:47.903Z,612
2017-05-05T06:12:48.187Z,620
2017-05-05T06:13:48.226Z,600
2017-05-05T06:14:48.157Z,564
2017-05-05T06:15:47.821Z,500
2017-05-05T06:16:48.152Z,468
2017-05-05T06:17:48.146Z,456
2017-05-05T06:18:47.441Z,456
2017-05-05T06:19:47.744Z,464
2017-05-05T06:20:48.014Z,476
2017-05-05T06:21:47.719Z,508
2017-05-05T06:22:47.663Z,492
2017-05-05T06:23:47.663Z,496
2017-05-05T06:24:47.628Z,500
2017-05-05T06:25:47.946Z,500
2017-05-05T06:26:47.907Z,504
2017-05-05T06:27:47.569Z,496
2017-05-05T06:28:47.539Z,520
2017-05-05T06:29:47.523Z,512
2017-05-05T06:30:47.524Z,520
2017-05-05T06:31:47.842Z,548
2017-05-05T06:32:47.793Z,576
2017-05-05T06:33:47.753Z,560
2017-05-05T06:34:47.742Z,544
2017-05-05T06:35:47.722Z,548
2017-05-05T06:36:47.705Z,552
2017-05-05T06:37:47.375Z,580
2017-05-05T06:38:47.348Z,612
2017-05-05T06:39:47.316Z,620
2017-05-05T06:40:46.983Z,648
2017-05-05T06:41:46.973Z,688
2017-05-05T06:42:46.957Z,732
2017-05-05T06:43:47.310Z,792
2017-05-05T06:44:46.903Z,832
2017-05-05T06:45:47.550Z,796
2017-05-05T06:46:47.175Z,812
2017-05-05T06:47:47.158Z,816
2017-05-05T06:48:47.127Z,824
2017-05-05T06:49:47.431Z,864
2017-05-05T06:50:47.096Z,864
2017-05-05T06:51:47.433Z,820
2017-05-05T06:52:47.360Z,864
2017-05-05T06:53:47.095Z,912
2017-05-05T06:54:47.391Z,972
2017-05-05T06:55:47.043Z,1008
2017-05-05T06:56:46.972Z,1060
2017-05-05T06:57:46.937Z,1128
2017-05-05T06:58:47.251Z,1084
2017-05-05T06:59:47.242Z,1044
2017-05-05T07:00:46.574Z,1000
2017-05-05T07:01:47.251Z,944
2017-05-05T07:02:46.860Z,1004
2017-05-05T07:03:47.143Z,1044
2017-05-05T07:04:47.131Z,1136
2017-05-05T07:05:47.163Z,1120
2017-05-05T07:06:47.114Z,1056
2017-05-05T07:07:46.795Z,1008
2017-05-05T07:08:46.731Z,1000
2017-05-05T07:09:46.730Z,1000
2017-05-05T07:10:47.023Z,1016
2017-05-05T07:11:46.666Z,1040
2017-05-05T07:12:46.962Z,1056
2017-05-05T07:13:46.717Z,1068
2017-05-05T07:14:46.978Z,1076
2017-05-05T07:15:46.601Z,1120
2017-05-05T07:16:46.323Z,1168
2017-05-05T07:17:46.558Z,1176
2017-05-05T07:18:46.572Z,1180
2017-05-05T07:19:46.512Z,1148
2017-05-05T07:20:46.836Z,1152
2017-05-05T07:21:46.502Z,1180
2017-05-05T07:22:46.772Z,1148
2017-05-05T07:23:46.114Z,1180
2017-05-05T07:24:46.753Z,1144
2017-05-05T07:25:46.411Z,1192
2017-05-05T07:26:46.371Z,1320
2017-05-05T07:27:46.402Z,1428
2017-05-05T07:28:46.644Z,1568
2017-05-05T07:29:46.613Z,1672
2017-05-05T07:30:46.617Z,1692
2017-05-05T07:31:46.268Z,1820
2017-05-05T07:32:46.256Z,1852
2017-05-05T07:33:46.223Z,1780
2017-05-05T07:34:45.925Z,1712
2017-05-05T07:35:46.165Z,1652
2017-05-05T07:36:46.163Z,1692
2017-05-05T07:37:45.845Z,1636
2017-05-05T07:38:46.106Z,1580
2017-05-05T07:39:46.151Z,1668
2017-05-05T07:40:46.180Z,1740
2017-05-05T07:41:45.755Z,1836
2017-05-05T07:42:46.386Z,1888
2017-05-05T07:43:46.012Z,1892
2017-05-05T07:44:45.721Z,1936
2017-05-05T07:45:46.042Z,2036
2017-05-05T07:46:45.686Z,2136
2017-05-05T07:47:46.310Z,2124
2017-05-05T07:48:45.915Z,2208
2017-05-05T07:49:45.889Z,2444
2017-05-05T07:50:45.873Z,2584
2017-05-05T07:51:45.853Z,2500
2017-05-05T07:52:45.542Z,2084
2017-05-05T07:53:45.511Z,1776
2017-05-05T07:54:45.786Z,1620
2017-05-05T07:55:45.865Z,1476
2017-05-05T07:56:45.753Z,1364
2017-05-05T07:57:46.063Z,1288
2017-05-05T07:58:45.726Z,1216
2017-05-05T07:59:46.026Z,1180
2017-05-05T08:00:46.085Z,1180
2017-05-05T08:01:46.009Z,1192
2017-05-05T08:02:45.647Z,1212
2017-05-05T08:03:45.728Z,1228
2017-05-05T08:04:45.605Z,1248
2017-05-05T08:05:45.992Z,1272
2017-05-05T08:06:45.552Z,1344
2017-05-05T08:07:45.243Z,1356
2017-05-05T08:08:45.832Z,1356
2017-05-05T08:09:45.838Z,1392
2017-05-05T08:10:45.847Z,1404
2017-05-05T08:11:45.473Z,1412
2017-05-05T08:12:45.749Z,1420
2017-05-05T08:13:45.735Z,1472
2017-05-05T08:14:45.704Z,1516
2017-05-05T08:15:45.674Z,1564
2017-05-05T08:16:45.359Z,1596
2017-05-05T08:17:45.650Z,1580
2017-05-05T08:18:45.634Z,1548
2017-05-05T08:19:45.293Z,1556
2017-05-05T08:20:45.266Z,1572
2017-05-05T08:21:45.284Z,1608
2017-05-05T08:22:45.243Z,1664
2017-05-05T08:23:45.324Z,1736
2017-05-05T08:24:44.882Z,1820
2017-05-05T08:25:44.872Z,1868
2017-05-05T08:26:45.486Z,1936
2017-05-05T08:27:45.153Z,1996
2017-05-05T08:28:45.135Z,2060
2017-05-05T08:29:45.401Z,2100
2017-05-05T08:30:45.404Z,2184
2017-05-05T08:31:45.453Z,2308
2017-05-05T08:32:45.368Z,2392
2017-05-05T08:33:45.367Z,2488
2017-05-05T08:34:45.305Z,2608
2017-05-05T08:35:44.973Z,2704
2017-05-05T08:36:45.260Z,2728
2017-05-05T08:37:45.264Z,2688
2017-05-05T08:38:44.598Z,2620
2017-05-05T08:39:45.353Z,2540
2017-05-05T08:40:44.578Z,2492
2017-05-05T08:41:44.555Z,2480
2017-05-05T08:42:44.903Z,2508
2017-05-05T08:43:44.826Z,2552
2017-05-05T08:44:44.471Z,2556
2017-05-05T08:45:44.893Z,2552
2017-05-05T08:46:44.525Z,2472
2017-05-05T08:47:44.772Z,2420
2017-05-05T08:48:44.415Z,2388
2017-05-05T08:49:44.815Z,2388
2017-05-05T08:50:44.993Z,2408
2017-05-05T08:51:44.653Z,2412
2017-05-05T08:52:44.079Z,2420
2017-05-05T08:53:44.425Z,2468
2017-05-05T08:54:44.602Z,2548
2017-05-05T08:55:44.884Z,2628
2017-05-05T08:56:44.884Z,2712
2017-05-05T08:57:44.545Z,2780
2017-05-05T08:58:44.636Z,2864
2017-05-05T08:59:44.500Z,3004
2017-05-05T09:00:44.792Z,3144
2017-05-05T09:01:44.552Z,3216
2017-05-05T09:02:44.462Z,3228
2017-05-05T09:03:44.228Z,3212
2017-05-05T09:04:44.713Z,3236
2017-05-05T09:05:44.154Z,3284
2017-05-05T09:06:44.678Z,3332
2017-05-05T09:07:44.445Z,3380
2017-05-05T09:08:44.376Z,3364
2017-05-05T09:09:43.997Z,3260
2017-05-05T09:10:44.385Z,3072
2017-05-05T09:11:43.963Z,2952
2017-05-05T09:12:44.669Z,2924
2017-05-05T09:13:44.230Z,2940
2017-05-05T09:14:44.585Z,2904
2017-05-05T09:15:44.182Z,2788
2017-05-05T09:16:44.476Z,2668
2017-05-05T09:17:44.453Z,2616
2017-05-05T09:18:44.131Z,2596
2017-05-05T09:19:43.797Z,2544
2017-05-05T09:20:43.588Z,2508
2017-05-05T09:21:43.760Z,2556
2017-05-05T09:22:43.767Z,2600
2017-05-05T09:23:44.085Z,2532
2017-05-05T09:24:44.018Z,2368
2017-05-05T09:25:44.104Z,2240
2017-05-05T09:26:43.657Z,2228
2017-05-05T09:27:43.960Z,2312
2017-05-05T09:28:44.286Z,2376
2017-05-05T09:29:43.993Z,2412
2017-05-05T09:30:44.202Z,2424
2017-05-05T09:31:44.186Z,2312
2017-05-05T09:32:44.177Z,2344
2017-05-05T09:33:43.834Z,2352
2017-05-05T09:34:43.827Z,2336
2017-05-05T09:35:44.202Z,2332
2017-05-05T09:36:43.772Z,2340
2017-05-05T09:37:43.453Z,2328
2017-05-05T09:38:43.120Z,2328
2017-05-05T09:39:44.152Z,2296
2017-05-05T09:40:43.390Z,2260
2017-05-05T09:41:43.380Z,2180
2017-05-05T09:42:43.361Z,2052
2017-05-05T09:43:43.624Z,1900
2017-05-05T09:44:43.633Z,1768
2017-05-05T09:45:43.653Z,1680
2017-05-05T09:46:43.581Z,1652
2017-05-05T09:47:43.551Z,1672
2017-05-05T09:48:43.839Z,1796
2017-05-05T09:49:43.519Z,1792
2017-05-05T09:50:43.496Z,1748
2017-05-05T09:51:43.473Z,1708
2017-05-05T09:52:43.454Z,1684
2017-05-05T09:53:43.467Z,1704
2017-05-05T09:54:43.422Z,1664
2017-05-05T09:55:43.695Z,1660
2017-05-05T09:56:43.391Z,1644
2017-05-05T09:57:43.662Z,1596
2017-05-05T09:58:43.643Z,1612
2017-05-05T09:59:43.382Z,1648
2017-05-05T10:00:43.610Z,1696
2017-05-05T10:01:43.396Z,1784
2017-05-05T10:02:43.700Z,1816
2017-05-05T10:03:42.953Z,1752
2017-05-05T10:04:42.915Z,1660
2017-05-05T10:05:43.534Z,1656
2017-05-05T10:06:43.513Z,1732
2017-05-05T10:07:43.494Z,1728
2017-05-05T10:08:42.862Z,1852
2017-05-05T10:09:42.835Z,2068
2017-05-05T10:10:43.435Z,2264
2017-05-05T10:11:43.402Z,2500
2017-05-05T10:12:43.385Z,2696
2017-05-05T10:13:43.385Z,2860
2017-05-05T10:14:43.053Z,2812
2017-05-05T10:15:43.438Z,2664
2017-05-05T10:16:43.324Z,2532
2017-05-05T10:17:43.305Z,2492
2017-05-05T10:18:43.314Z,2500
2017-05-05T10:19:42.973Z,2516
2017-05-05T10:20:42.971Z,2592
2017-05-05T10:21:43.337Z,2716
2017-05-05T10:22:42.888Z,2744
2017-05-05T10:23:43.295Z,2784
2017-05-05T10:24:42.833Z,2808
2017-05-05T10:25:43.425Z,2772
2017-05-05T10:26:43.212Z,2808
2017-05-05T10:27:43.102Z,2888
2017-05-05T10:28:43.134Z,2924
2017-05-05T10:29:43.063Z,2896
2017-05-05T10:30:43.141Z,2876
2017-05-05T10:31:43.001Z,2828
2017-05-05T10:32:42.991Z,2676
2017-05-05T10:33:42.656Z,2544
2017-05-05T10:34:42.942Z,2520
2017-05-05T10:35:42.931Z,2560
2017-05-05T10:36:43.012Z,2564
2017-05-05T10:37:42.903Z,2636
2017-05-05T10:38:42.874Z,2604
2017-05-05T10:39:42.954Z,2616
2017-05-05T10:40:42.616Z,2540
2017-05-05T10:41:42.510Z,2440
2017-05-05T10:42:42.533Z,2408
2017-05-05T10:43:42.771Z,2380
2017-05-05T10:44:42.134Z,2348
2017-05-05T10:45:42.732Z,2328
2017-05-05T10:46:42.505Z,2332
2017-05-05T10:47:42.806Z,2356
2017-05-05T10:48:42.682Z,2352
2017-05-05T10:49:42.032Z,2340
2017-05-05T10:50:42.332Z,2392
2017-05-05T10:51:42.300Z,2476
2017-05-05T10:52:42.285Z,2536
2017-05-05T10:53:42.663Z,2492
2017-05-05T10:54:42.613Z,2396
2017-05-05T10:55:42.279Z,2332
2017-05-05T10:56:41.905Z,2316
2017-05-05T10:57:41.902Z,2356
2017-05-05T10:58:42.171Z,2460
2017-05-05T10:59:42.575Z,2672
2017-05-05T11:00:42.442Z,3168
2017-05-05T11:01:42.507Z,4052
2017-05-05T11:02:42.504Z,5360
2017-05-05T11:03:42.489Z,7324
2017-05-05T11:04:42.356Z,9548
2017-05-05T11:05:42.092Z,12216
2017-05-05T11:06:42.320Z,14828
2017-05-05T11:07:42.313Z,15656
2017-05-05T11:08:42.334Z,14204
2017-05-05T11:09:41.343Z,13292
2017-05-05T11:10:41.332Z,12064
2017-05-05T11:11:42.227Z,11044
2017-05-05T11:12:41.910Z,10664
2017-05-05T11:13:41.983Z,10276
2017-05-05T11:14:42.194Z,9468
2017-05-05T11:15:42.171Z,8356
2017-05-05T11:16:41.542Z,7556
2017-05-05T11:17:41.509Z,6968
2017-05-05T11:18:42.110Z,6536
2017-05-05T11:19:41.462Z,5972
2017-05-05T11:20:42.063Z,5424
2017-05-05T11:21:41.433Z,5040
2017-05-05T11:22:41.106Z,4788
2017-05-05T11:23:41.396Z,4572
2017-05-05T11:24:42.013Z,4324
2017-05-05T11:25:41.699Z,4012
2017-05-05T11:26:41.661Z,3628
2017-05-05T11:27:41.312Z,3404
2017-05-05T11:28:41.333Z,3288
2017-05-05T11:29:41.313Z,3220
2017-05-05T11:30:41.881Z,3208
2017-05-05T11:31:41.865Z,3224
2017-05-05T11:32:41.246Z,3192
2017-05-05T11:33:41.532Z,3188
2017-05-05T11:34:41.823Z,3224
2017-05-05T11:35:41.209Z,3320
2017-05-05T11:36:41.175Z,3336
2017-05-05T11:37:41.136Z,3236
2017-05-05T11:38:41.116Z,3176
2017-05-05T11:39:41.114Z,3124
2017-05-05T11:40:41.395Z,3212
2017-05-05T11:41:41.384Z,3404
2017-05-05T11:42:41.362Z,3420
2017-05-05T11:43:41.464Z,3412
2017-05-05T11:44:41.313Z,3412
2017-05-05T11:45:41.693Z,3372
2017-05-05T11:46:41.600Z,3372
2017-05-05T11:47:41.273Z,3396
2017-05-05T11:48:41.244Z,3312
2017-05-05T11:49:41.039Z,3160
2017-05-05T11:50:41.502Z,2944
2017-05-05T11:51:41.035Z,2744
2017-05-05T11:52:41.184Z,2884
2017-05-05T11:53:41.280Z,2920
2017-05-05T11:54:41.130Z,3024
2017-05-05T11:55:41.251Z,3260
2017-05-05T11:56:41.106Z,3384
2017-05-05T11:57:41.092Z,3380
2017-05-05T11:58:41.457Z,3276
2017-05-05T11:59:40.451Z,3048
2017-05-05T12:00:41.133Z,3312
2017-05-05T12:01:40.735Z,3724
2017-05-05T12:02:41.115Z,4012
2017-05-05T12:03:41.380Z,4160
2017-05-05T12:04:41.317Z,4208
2017-05-05T12:05:41.347Z,4144
2017-05-05T12:06:41.213Z,4076
2017-05-05T12:07:41.026Z,4240
2017-05-05T12:08:41.184Z,4744
2017-05-05T12:09:41.169Z,5180
2017-05-05T12:10:41.151Z,5484
2017-05-05T12:11:41.193Z,5720
2017-05-05T12:12:41.202Z,5740
2017-05-05T12:13:41.106Z,5572
2017-05-05T12:14:41.095Z,5324
2017-05-05T12:15:41.191Z,4932
2017-05-05T12:16:40.804Z,4592
2017-05-05T12:17:41.030Z,4260
2017-05-05T12:18:41.015Z,4000
2017-05-05T12:19:41.166Z,3904
2017-05-05T12:20:40.982Z,4036
2017-05-05T12:21:40.972Z,4224
2017-05-05T12:22:41.015Z,4304
2017-05-05T12:23:40.600Z,4372
2017-05-05T12:24:40.907Z,4512
2017-05-05T12:25:40.642Z,4640
2017-05-05T12:26:40.557Z,4616
2017-05-05T12:27:40.532Z,4416
2017-05-05T12:28:40.817Z,4204
2017-05-05T12:29:40.508Z,4092
2017-05-05T12:30:40.467Z,3920
2017-05-05T12:31:40.823Z,3760
2017-05-05T12:32:40.504Z,3568
2017-05-05T12:33:40.438Z,3376
2017-05-05T12:34:40.394Z,3260
2017-05-05T12:35:40.073Z,3256
2017-05-05T12:36:40.393Z,3328
2017-05-05T12:37:40.700Z,3408
2017-05-05T12:38:40.696Z,3512
2017-05-05T12:39:40.026Z,3536
2017-05-05T12:40:40.313Z,3460
2017-05-05T12:41:40.584Z,3428
2017-05-05T12:42:40.584Z,3412
2017-05-05T12:43:40.545Z,3356
2017-05-05T12:44:40.545Z,3220
2017-05-05T12:45:40.522Z,3064
2017-05-05T12:46:40.503Z,3036
2017-05-05T12:47:39.854Z,3156
2017-05-05T12:48:40.136Z,3228
2017-05-05T12:49:39.820Z,3268
2017-05-05T12:50:40.115Z,3240
2017-05-05T12:51:39.789Z,3144
2017-05-05T12:52:39.766Z,3112
2017-05-05T12:53:40.098Z,3108
2017-05-05T12:54:40.331Z,3080
2017-05-05T12:55:40.335Z,2992
2017-05-05T12:56:40.394Z,2876
2017-05-05T12:57:39.984Z,2764
2017-05-05T12:58:40.308Z,2600
2017-05-05T12:59:39.937Z,2460
2017-05-05T13:00:40.273Z,2384
2017-05-05T13:01:40.307Z,2432
2017-05-05T13:02:40.203Z,2556
2017-05-05T13:03:39.863Z,2664
2017-05-05T13:04:40.167Z,2768
2017-05-05T13:05:39.834Z,2880
2017-05-05T13:06:39.816Z,3004
2017-05-05T13:07:40.094Z,3152
2017-05-05T13:08:40.117Z,3272
2017-05-05T13:09:40.075Z,3356
2017-05-05T13:10:40.072Z,3348
2017-05-05T13:11:39.726Z,3256
2017-05-05T13:12:39.114Z,3104
2017-05-05T13:13:40.037Z,2932
2017-05-05T13:14:40.087Z,2784
2017-05-05T13:15:39.985Z,2652
2017-05-05T13:16:39.624Z,2564
2017-05-05T13:17:39.927Z,2496
2017-05-05T13:18:39.281Z,2468
2017-05-05T13:19:39.893Z,2476
2017-05-05T13:20:39.880Z,2480
2017-05-05T13:21:39.860Z,2436
2017-05-05T13:22:39.216Z,2372
2017-05-05T13:23:39.894Z,2324
2017-05-05T13:24:39.470Z,2284
2017-05-05T13:25:39.834Z,2244
2017-05-05T13:26:39.127Z,2244
2017-05-05T13:27:39.845Z,2284
2017-05-05T13:28:39.722Z,2336
2017-05-05T13:29:39.403Z,2356
2017-05-05T13:30:39.378Z,2300
2017-05-05T13:31:39.130Z,2252
2017-05-05T13:32:39.052Z,2232
2017-05-05T13:33:39.672Z,2232
2017-05-05T13:34:38.993Z,2244
2017-05-05T13:35:39.672Z,2284
2017-05-05T13:36:38.972Z,2336
2017-05-05T13:37:39.595Z,2376
2017-05-05T13:38:39.601Z,2392
2017-05-05T13:39:39.502Z,2384
2017-05-05T13:40:39.188Z,2380
2017-05-05T13:41:38.914Z,2400
2017-05-05T13:42:39.509Z,2448
2017-05-05T13:43:39.237Z,2524
2017-05-05T13:44:39.409Z,2628
2017-05-05T13:45:38.799Z,2708
2017-05-05T13:46:39.471Z,2676
2017-05-05T13:47:39.450Z,2600
2017-05-05T13:48:39.466Z,2460